createdAt,value
2018-09-04T00:04:56.619Z,0
2018-09-04T00:09:56.766Z,0
2018-09-04T00:14:56.534Z,0
2018-09-04T00:19:57.253Z,0
2018-09-04T00:24:56.532Z,0
2018-09-04T00:29:56.556Z,0
2018-09-04T00:34:56.609Z,0
2018-09-04T00:39:56.259Z,0
2018-09-04T00:44:56.652Z,0
2018-09-04T00:49:56.645Z,0
2018-09-04T00:54:56.441Z,0
2018-09-04T00:59:56.423Z,0
2018-09-04T01:04:56.433Z,0
2018-09-04T01:09:57.458Z,0
2018-09-04T01:14:56.601Z,0
2018-09-04T01:19:56.430Z,0
2018-09-04T01:24:56.966Z,0
2018-09-04T01:29:57.174Z,0
2018-09-04T01:34:56.632Z,0
2018-09-04T01:39:56.599Z,0
2018-09-04T01:44:59.204Z,0
2018-09-04T01:49:58.232Z,0
2018-09-04T01:54:59.349Z,0
2018-09-04T01:59:56.396Z,0
2018-09-04T02:04:57.218Z,0
2018-09-04T02:09:56.457Z,0
2018-09-04T02:14:56.448Z,0
2018-09-04T02:19:56.356Z,0
2018-09-04T02:24:56.232Z,0
2018-09-04T02:29:56.695Z,0
2018-09-04T02:34:56.256Z,0
2018-09-04T02:39:56.388Z,0
2018-09-04T02:44:56.548Z,0
2018-09-04T02:49:56.369Z,0
2018-09-04T02:54:56.410Z,0
2018-09-04T02:59:57.329Z,0
2018-09-04T03:04:57.789Z,0
2018-09-04T03:09:56.883Z,0
2018-09-04T03:14:56.588Z,0
2018-09-04T03:19:57.378Z,0
2018-09-04T03:24:56.334Z,0
2018-09-04T03:29:56.145Z,0
2018-09-04T03:34:56.169Z,0
2018-09-04T03:39:56.465Z,0
2018-09-04T03:44:56.325Z,0
2018-09-04T03:49:56.017Z,0
2018-09-04T03:54:56.603Z,0
2018-09-04T03:59:56.214Z,0
2018-09-04T04:04:56.241Z,0
2018-09-04T04:09:55.879Z,0
2018-09-04T04:14:56.030Z,0
2018-09-04T04:19:56.159Z,0
2018-09-04T04:24:56.252Z,0
2018-09-04T04:29:55.857Z,0
2018-09-04T04:34:56.111Z,0
2018-09-04T04:39:56.373Z,0
2018-09-04T04:44:55.974Z,0
2018-09-04T04:49:55.855Z,0
2018-09-04T04:54:56.037Z,0
2018-09-04T04:59:55.908Z,0.8
2018-09-04T05:04:56.182Z,0.8
2018-09-04T05:09:56.150Z,1.7
2018-09-04T05:14:56.091Z,2.5
2018-09-04T05:19:55.823Z,3.3
2018-09-04T05:24:55.992Z,3.3
2018-09-04T05:29:55.881Z,4.2
2018-09-04T05:34:55.799Z,5
2018-09-04T05:39:55.795Z,5.8
2018-09-04T05:44:56.172Z,8.3
2018-09-04T05:49:56.006Z,15
2018-09-04T05:54:55.802Z,16.7
2018-09-04T05:59:56.004Z,16.7
2018-09-04T06:04:55.952Z,15
2018-09-04T06:09:55.901Z,15
2018-09-04T06:14:55.803Z,18.3
2018-09-04T06:19:56.061Z,17.5
2018-09-04T06:24:55.775Z,18.3
2018-09-04T06:29:55.989Z,21.7
2018-09-04T06:34:55.718Z,28.3
2018-09-04T06:39:55.847Z,31.7
2018-09-04T06:44:56.012Z,36.7
2018-09-04T06:49:55.692Z,34.2
2018-09-04T06:54:55.808Z,40
2018-09-04T06:59:55.747Z,44.2
2018-09-04T07:04:55.847Z,72.5
2018-09-04T07:09:56.319Z,94.2
2018-09-04T07:14:55.677Z,68.3
2018-09-04T07:19:55.833Z,62.5
2018-09-04T07:24:55.708Z,53.3
2018-09-04T07:29:55.672Z,51.7
2018-09-04T07:34:55.761Z,53.3
2018-09-04T07:39:55.875Z,75.8
2018-09-04T07:44:55.739Z,66.7
2018-09-04T07:49:55.843Z,70
2018-09-04T07:54:55.845Z,95.8
2018-09-04T07:59:56.022Z,123.3
2018-09-04T08:04:55.804Z,143.3
2018-09-04T08:09:55.712Z,160
2018-09-04T08:14:55.786Z,139.2
2018-09-04T08:19:55.485Z,150
2018-09-04T08:24:55.598Z,165.8
2018-09-04T08:29:55.647Z,184.2
2018-09-04T08:34:55.514Z,182.5
2018-09-04T08:39:55.560Z,185.8
2018-09-04T08:44:55.881Z,195.8
2018-09-04T08:49:55.570Z,202.5
2018-09-04T08:54:55.535Z,218.3
2018-09-04T08:59:55.673Z,223.3
2018-09-04T09:04:55.457Z,230.8
2018-09-04T09:09:55.836Z,265.8
2018-09-04T09:14:55.637Z,298.3
2018-09-04T09:19:55.667Z,274.2
2018-09-04T09:24:55.436Z,245.8
2018-09-04T09:29:55.880Z,222.5
2018-09-04T09:34:55.626Z,224.2
2018-09-04T09:39:55.635Z,229.2
2018-09-04T09:44:55.612Z,204.2
2018-09-04T09:49:55.736Z,190
2018-09-04T09:54:55.394Z,178.3
2018-09-04T09:59:55.871Z,189.2
2018-09-04T10:04:55.408Z,188.3
2018-09-04T10:09:55.521Z,162.5
2018-09-04T10:14:55.537Z,207.5
2018-09-04T10:19:55.774Z,215.8
2018-09-04T10:24:55.743Z,280
2018-09-04T10:29:55.549Z,254.2
2018-09-04T10:34:55.679Z,255
2018-09-04T10:39:55.484Z,286.7
2018-09-04T10:44:55.313Z,250
2018-09-04T10:49:55.494Z,230.8
2018-09-04T10:54:55.317Z,273.3
2018-09-04T10:59:55.540Z,250
2018-09-04T11:04:55.389Z,293.3
2018-09-04T11:09:55.549Z,277.5
2018-09-04T11:14:55.438Z,400.8
2018-09-04T11:19:55.466Z,313.3
2018-09-04T11:24:55.292Z,426.7
2018-09-04T11:29:55.262Z,323.3
2018-09-04T11:34:55.550Z,456.7
2018-09-04T11:39:55.219Z,440.8
2018-09-04T11:44:55.432Z,330.8
2018-09-04T11:49:55.451Z,360
2018-09-04T11:54:55.426Z,346.7
2018-09-04T11:59:55.214Z,305
2018-09-04T12:04:55.489Z,354.2
2018-09-04T12:09:55.375Z,438.3
2018-09-04T12:14:55.354Z,314.2
2018-09-04T12:19:55.438Z,304.2
2018-09-04T12:24:55.357Z,529.2
2018-09-04T12:29:55.455Z,618.3
2018-09-04T12:34:55.437Z,625.8
2018-09-04T12:39:55.235Z,638.3
2018-09-04T12:44:55.184Z,632.5
2018-09-04T12:49:55.396Z,635
2018-09-04T12:54:55.316Z,495.8
2018-09-04T12:59:55.493Z,573.3
2018-09-04T13:04:55.291Z,365.8
2018-09-04T13:09:55.316Z,330.8
2018-09-04T13:14:55.342Z,275.8
2018-09-04T13:19:55.069Z,260.8
2018-09-04T13:24:55.354Z,561.7
2018-09-04T13:29:55.046Z,455
2018-09-04T13:34:55.302Z,269.2
2018-09-04T13:39:55.107Z,262.5
2018-09-04T13:44:55.380Z,338.3
2018-09-04T13:49:55.386Z,495.8
2018-09-04T13:54:55.088Z,471.7
2018-09-04T13:59:55.011Z,306.7
2018-09-04T14:04:55.272Z,600.8
2018-09-04T14:09:55.075Z,385.8
2018-09-04T14:14:55.068Z,229.2
2018-09-04T14:19:55.282Z,160.8
2018-09-04T14:24:55.072Z,148.3
2018-09-04T14:30:15.541Z,155.8
2018-09-04T14:34:55.249Z,135
2018-09-04T14:39:55.583Z,123.3
2018-09-04T14:44:55.096Z,93.3
2018-09-04T14:49:55.239Z,81.7
2018-09-04T14:54:55.214Z,95.8
2018-09-04T14:59:54.946Z,120
2018-09-04T15:04:55.095Z,134.2
2018-09-04T15:09:54.979Z,136.7
2018-09-04T15:14:55.171Z,142.5
2018-09-04T15:19:55.381Z,139.2
2018-09-04T15:24:55.145Z,138.3
2018-09-04T15:29:55.311Z,144.2
2018-09-04T15:34:54.978Z,149.2
2018-09-04T15:39:55.046Z,140.8
2018-09-04T15:44:55.045Z,138.3
2018-09-04T15:49:54.921Z,115.8
2018-09-04T15:54:55.098Z,104.2
2018-09-04T15:59:55.032Z,96.7
2018-09-04T16:04:55.160Z,91.7
2018-09-04T16:09:55.087Z,92.5
2018-09-04T16:14:55.130Z,94.2
2018-09-04T16:19:55.286Z,80
2018-09-04T16:24:54.999Z,79.2
2018-09-04T16:29:54.934Z,70
2018-09-04T16:34:54.912Z,65.8
2018-09-04T16:39:54.839Z,63.3
2018-09-04T16:44:54.970Z,63.3
2018-09-04T16:49:55.092Z,57.5
2018-09-04T16:54:54.914Z,50
2018-09-04T16:59:54.877Z,40.8
2018-09-04T17:04:54.964Z,35.8
2018-09-04T17:09:55.003Z,33.3
2018-09-04T17:14:54.925Z,30.8
2018-09-04T17:19:55.003Z,30
2018-09-04T17:24:54.870Z,30.8
2018-09-04T17:29:55.086Z,31.7
2018-09-04T17:34:54.840Z,32.5
2018-09-04T17:39:54.803Z,30.8
2018-09-04T17:44:54.728Z,30
2018-09-04T17:49:54.820Z,26.7
2018-09-04T17:54:54.974Z,21.7
2018-09-04T17:59:54.880Z,17.5
2018-09-04T18:04:54.840Z,12.5
2018-09-04T18:09:54.810Z,9.2
2018-09-04T18:14:54.863Z,5.8
2018-09-04T18:19:54.979Z,3.3
2018-09-04T18:24:54.999Z,1.7
2018-09-04T18:29:54.669Z,0.8
2018-09-04T18:34:54.728Z,0
2018-09-04T18:39:54.607Z,0
2018-09-04T18:44:54.911Z,0
2018-09-04T18:49:54.948Z,0
2018-09-04T18:54:55.150Z,0
2018-09-04T18:59:54.941Z,0
2018-09-04T19:04:54.782Z,0
2018-09-04T19:09:55.021Z,0
2018-09-04T19:14:54.808Z,0
2018-09-04T19:19:55.641Z,0
2018-09-04T19:24:54.967Z,0
2018-09-04T19:30:00.029Z,0
2018-09-04T19:34:55.128Z,0
2018-09-04T19:40:02.985Z,0
2018-09-04T19:46:00.828Z,0
2018-09-04T19:49:55.351Z,0
2018-09-04T19:55:38.823Z,0
2018-09-04T19:59:56.842Z,0
2018-09-04T20:04:59.892Z,0
2018-09-04T20:10:07.308Z,0
2018-09-04T20:15:45.123Z,0
2018-09-04T20:19:59.568Z,0
2018-09-04T20:25:18.999Z,0
2018-09-04T20:29:54.678Z,0
2018-09-04T20:35:26.354Z,0
2018-09-04T20:39:54.526Z,0
2018-09-04T20:44:55.713Z,0
2018-09-04T20:49:55.871Z,0
2018-09-04T20:54:54.705Z,0
2018-09-04T20:59:55.070Z,0
2018-09-04T21:04:55.412Z,0
2018-09-04T21:09:54.768Z,0
2018-09-04T21:14:54.961Z,0
2018-09-04T21:19:55.083Z,0
2018-09-04T21:24:55.025Z,0
2018-09-04T21:29:55.073Z,0
2018-09-04T21:34:54.927Z,0
2018-09-04T21:39:55.022Z,0
2018-09-04T21:44:55.680Z,0
2018-09-04T21:49:55.191Z,0
2018-09-04T21:54:54.749Z,0
2018-09-04T21:59:55.189Z,0
2018-09-04T22:04:55.603Z,0
2018-09-04T22:09:54.807Z,0
2018-09-04T22:15:08.981Z,0
2018-09-04T22:19:55.963Z,0
2018-09-04T22:24:55.176Z,0
2018-09-04T22:29:55.184Z,0
2018-09-04T22:34:54.854Z,0
2018-09-04T22:39:54.926Z,0
2018-09-04T22:44:54.935Z,0
2018-09-04T22:49:54.780Z,0
2018-09-04T22:54:54.784Z,0
2018-09-04T22:59:54.776Z,0
2018-09-04T23:04:54.566Z,0
2018-09-04T23:09:54.570Z,0
2018-09-04T23:14:54.700Z,0
2018-09-04T23:19:54.590Z,0
2018-09-04T23:24:56.066Z,0
2018-09-04T23:29:54.473Z,0
2018-09-04T23:34:54.463Z,0
2018-09-04T23:39:54.774Z,0
2018-09-04T23:44:54.508Z,0
2018-09-04T23:49:54.646Z,0
2018-09-04T23:54:54.672Z,0
2018-09-04T23:59:55.956Z,0
